createdAt,value
2019-05-15T00:00:21.494Z,2.10
2019-05-15T00:01:02.569Z,2.58
2019-05-15T00:01:41.210Z,2.25
2019-05-15T00:02:20.631Z,2.65
2019-05-15T00:02:58.992Z,2.20
2019-05-15T00:03:39.080Z,2.50
2019-05-15T00:04:18.665Z,2.55
2019-05-15T00:04:58.550Z,2.40
2019-05-15T00:05:39.052Z,2.40
2019-05-15T00:06:19.082Z,2.40
2019-05-15T00:06:58.240Z,1.90
2019-05-15T00:07:39.100Z,2.30
2019-05-15T00:08:18.701Z,2.35
2019-05-15T00:08:59.006Z,2.60
2019-05-15T00:09:41.550Z,2.20
2019-05-15T00:10:18.166Z,2.10
2019-05-15T00:10:58.090Z,2.75
2019-05-15T00:11:38.774Z,2.10
2019-05-15T00:12:19.683Z,2.70
2019-05-15T00:12:58.320Z,2.22
2019-05-15T00:13:38.646Z,2.35
2019-05-15T00:14:22.307Z,2.27
2019-05-15T00:15:00.226Z,2.52
2019-05-15T00:15:40.065Z,2.60
2019-05-15T00:16:18.631Z,2.33
2019-05-15T00:16:58.974Z,2.40
2019-05-15T00:17:36.425Z,2.95
2019-05-15T00:18:14.985Z,2.20
2019-05-15T00:18:53.357Z,1.90
2019-05-15T00:19:34.367Z,2.65
2019-05-15T00:20:12.160Z,1.87
2019-05-15T00:20:50.393Z,2.25
2019-05-15T00:21:28.786Z,2.20
2019-05-15T00:22:08.626Z,2.20
2019-05-15T00:22:48.431Z,2.33
2019-05-15T00:23:30.671Z,2.40
2019-05-15T00:24:13.207Z,2.30
2019-05-15T00:24:48.963Z,2.25
2019-05-15T00:25:28.320Z,3.08
2019-05-15T00:26:08.982Z,1.82
2019-05-15T00:26:48.081Z,2.08
2019-05-15T00:27:25.549Z,2.30
2019-05-15T00:28:03.692Z,2.42
2019-05-15T00:28:41.774Z,2.22
2019-05-15T00:29:20.046Z,2.20
2019-05-15T00:29:57.969Z,2.65
2019-05-15T00:30:38.484Z,2.37
2019-05-15T00:31:18.414Z,2.15
2019-05-15T00:31:58.761Z,2.37
2019-05-15T00:32:39.300Z,2.12
2019-05-15T00:33:19.341Z,2.33
2019-05-15T00:33:59.325Z,2.65
2019-05-15T00:34:37.991Z,2.50
2019-05-15T00:35:34.783Z,2.40
2019-05-15T00:36:13.333Z,2.35
2019-05-15T00:36:51.427Z,2.33
2019-05-15T00:37:29.608Z,2.10
2019-05-15T00:38:09.044Z,1.92
2019-05-15T00:38:48.310Z,2.20
2019-05-15T00:39:28.360Z,2.30
2019-05-15T00:40:08.867Z,1.95
2019-05-15T00:40:48.955Z,2.45
2019-05-15T00:41:27.872Z,1.90
2019-05-15T00:42:08.113Z,1.80
2019-05-15T00:42:46.175Z,1.82
2019-05-15T00:43:24.066Z,2.20
2019-05-15T00:44:02.452Z,1.92
2019-05-15T00:44:40.843Z,2.12
2019-05-15T00:45:19.715Z,2.20
2019-05-15T00:45:58.604Z,2.33
2019-05-15T00:46:38.419Z,2.30
2019-05-15T00:47:18.116Z,1.90
2019-05-15T00:47:57.926Z,1.70
2019-05-15T00:48:39.692Z,2.00
2019-05-15T00:49:18.923Z,2.35
2019-05-15T00:49:58.301Z,2.12
2019-05-15T00:50:36.291Z,1.75
2019-05-15T00:51:14.818Z,1.95
2019-05-15T00:51:53.004Z,2.60
2019-05-15T00:52:31.455Z,2.20
2019-05-15T00:53:10.417Z,2.25
2019-05-15T00:53:48.536Z,2.15
2019-05-15T00:54:29.587Z,1.80
2019-05-15T00:55:09.221Z,2.35
2019-05-15T00:55:48.634Z,2.10
2019-05-15T00:56:28.435Z,2.10
2019-05-15T00:57:08.576Z,2.20
2019-05-15T00:57:48.642Z,1.80
2019-05-15T00:58:28.341Z,2.30
2019-05-15T00:59:08.230Z,2.40
2019-05-15T00:59:48.455Z,1.60
2019-05-15T01:00:45.677Z,2.15
2019-05-15T01:01:23.462Z,2.08
2019-05-15T01:02:01.737Z,2.10
2019-05-15T01:02:40.037Z,1.80
2019-05-15T01:03:19.174Z,1.95
2019-05-15T01:03:58.579Z,1.87
2019-05-15T01:04:39.768Z,2.10
2019-05-15T01:05:18.625Z,2.25
2019-05-15T01:05:58.594Z,1.90
2019-05-15T01:06:38.978Z,1.90
2019-05-15T01:07:18.814Z,1.72
2019-05-15T01:07:58.631Z,1.95
2019-05-15T01:08:39.434Z,1.80
2019-05-15T01:09:18.704Z,2.40
2019-05-15T01:09:57.944Z,2.05
2019-05-15T01:10:38.609Z,2.20
2019-05-15T01:11:16.288Z,2.20
2019-05-15T01:11:54.819Z,2.20
2019-05-15T01:12:32.431Z,2.30
2019-05-15T01:13:10.451Z,2.10
2019-05-15T01:13:48.453Z,2.40
2019-05-15T01:14:27.850Z,1.82
2019-05-15T01:15:08.991Z,2.22
2019-05-15T01:15:49.017Z,2.12
2019-05-15T01:16:28.118Z,2.75
2019-05-15T01:17:08.867Z,2.55
2019-05-15T01:17:46.284Z,2.45
2019-05-15T01:18:26.133Z,2.80
2019-05-15T01:19:03.726Z,2.22
2019-05-15T01:19:42.095Z,2.20
2019-05-15T01:20:20.907Z,2.25
2019-05-15T01:20:58.913Z,2.05
2019-05-15T01:21:38.550Z,2.30
2019-05-15T01:22:16.316Z,2.35
2019-05-15T01:22:54.664Z,2.20
2019-05-15T01:23:32.934Z,2.27
2019-05-15T01:24:10.230Z,2.25
2019-05-15T01:24:48.576Z,2.30
2019-05-15T01:25:28.007Z,1.95
2019-05-15T01:26:08.169Z,2.05
2019-05-15T01:26:49.225Z,2.47
2019-05-15T01:27:29.179Z,2.10
2019-05-15T01:28:09.349Z,2.00
2019-05-15T01:28:49.489Z,2.55
2019-05-15T01:29:40.935Z,2.05
2019-05-15T01:30:08.974Z,2.10
2019-05-15T01:30:49.166Z,2.10
2019-05-15T01:31:28.533Z,2.25
2019-05-15T01:32:08.450Z,2.20
2019-05-15T01:32:48.421Z,2.12
2019-05-15T01:33:28.126Z,1.75
2019-05-15T01:34:05.875Z,2.20
2019-05-15T01:34:44.554Z,1.55
2019-05-15T01:35:22.576Z,2.00
2019-05-15T01:36:00.847Z,2.60
2019-05-15T01:36:39.068Z,2.00
2019-05-15T01:37:18.762Z,2.80
2019-05-15T01:37:58.455Z,2.30
2019-05-15T01:38:38.629Z,2.40
2019-05-15T01:39:18.331Z,2.35
2019-05-15T01:39:55.103Z,2.17
2019-05-15T01:40:33.386Z,2.55
2019-05-15T01:41:13.824Z,2.10
2019-05-15T01:41:51.769Z,2.05
2019-05-15T01:42:29.834Z,2.50
2019-05-15T01:43:09.065Z,2.10
2019-05-15T01:43:48.892Z,1.82
2019-05-15T01:44:28.752Z,2.00
2019-05-15T01:45:08.583Z,2.55
2019-05-15T01:45:48.272Z,2.40
2019-05-15T01:46:28.379Z,2.45
2019-05-15T01:47:08.445Z,2.55
2019-05-15T01:47:48.036Z,2.95
2019-05-15T01:48:28.278Z,2.40
2019-05-15T01:49:07.946Z,2.42
2019-05-15T01:49:46.293Z,2.17
2019-05-15T01:50:26.414Z,2.20
2019-05-15T01:51:04.098Z,2.30
2019-05-15T01:51:42.031Z,2.17
2019-05-15T01:52:19.921Z,2.55
2019-05-15T01:52:58.581Z,2.52
2019-05-15T01:53:38.522Z,2.62
2019-05-15T01:54:18.653Z,2.20
2019-05-15T01:54:58.258Z,2.62
2019-05-15T01:55:36.018Z,2.62
2019-05-15T01:56:14.118Z,2.58
2019-05-15T01:56:52.103Z,2.20
2019-05-15T01:57:30.744Z,2.08
2019-05-15T01:58:09.024Z,2.62
2019-05-15T01:58:49.856Z,2.47
2019-05-15T01:59:28.365Z,2.52
2019-05-15T02:00:08.761Z,2.42
2019-05-15T02:00:48.352Z,2.67
2019-05-15T02:01:28.886Z,2.02
2019-05-15T02:02:09.505Z,2.50
2019-05-15T02:02:49.078Z,2.30
2019-05-15T02:03:28.940Z,2.67
2019-05-15T02:04:08.371Z,3.20
2019-05-15T02:04:48.585Z,2.67
2019-05-15T02:05:28.253Z,2.72
2019-05-15T02:06:08.134Z,2.27
2019-05-15T02:06:48.095Z,2.08
2019-05-15T02:07:25.472Z,2.17
2019-05-15T02:08:03.274Z,2.27
2019-05-15T02:08:41.200Z,1.82
2019-05-15T02:09:20.834Z,3.12
2019-05-15T02:10:01.296Z,2.75
2019-05-15T02:10:39.544Z,2.83
2019-05-15T02:11:18.125Z,2.35
2019-05-15T02:11:58.162Z,2.22
2019-05-15T02:12:38.465Z,2.27
2019-05-15T02:13:15.766Z,2.70
2019-05-15T02:13:53.956Z,2.50
2019-05-15T02:14:32.366Z,2.50
2019-05-15T02:15:11.034Z,2.20
2019-05-15T02:15:48.459Z,3.00
2019-05-15T02:16:28.615Z,2.87
2019-05-15T02:17:08.458Z,2.47
2019-05-15T02:17:48.138Z,2.52
2019-05-15T02:18:28.315Z,2.72
2019-05-15T02:19:08.824Z,3.00
2019-05-15T02:19:48.411Z,2.55
2019-05-15T02:20:29.233Z,2.72
2019-05-15T02:21:10.330Z,2.60
2019-05-15T02:21:48.615Z,3.00
2019-05-15T02:22:28.357Z,2.92
2019-05-15T02:23:11.424Z,2.72
2019-05-15T02:23:48.016Z,2.85
2019-05-15T02:24:25.052Z,3.10
2019-05-15T02:25:03.257Z,2.20
2019-05-15T02:25:41.078Z,2.25
2019-05-15T02:26:19.099Z,2.50
2019-05-15T02:26:58.828Z,2.52
2019-05-15T02:27:39.412Z,2.50
2019-05-15T02:28:18.527Z,2.80
2019-05-15T02:28:56.534Z,2.65
2019-05-15T02:29:34.626Z,2.30
2019-05-15T02:30:24.233Z,3.27
2019-05-15T02:30:52.494Z,2.77
2019-05-15T02:31:30.599Z,2.20
2019-05-15T02:32:10.143Z,2.05
2019-05-15T02:32:50.098Z,2.40
2019-05-15T02:33:30.089Z,2.37
2019-05-15T02:34:09.764Z,2.25
2019-05-15T02:34:49.947Z,2.22
2019-05-15T02:35:29.255Z,2.50
2019-05-15T02:36:04.826Z,2.90
2019-05-15T02:36:48.994Z,2.20
2019-05-15T02:37:29.475Z,2.27
2019-05-15T02:38:10.231Z,2.45
2019-05-15T02:38:48.699Z,2.15
2019-05-15T02:39:28.621Z,2.35
2019-05-15T02:40:09.657Z,1.90
2019-05-15T02:40:45.680Z,1.80
2019-05-15T02:41:23.831Z,1.82
2019-05-15T02:42:02.023Z,2.25
2019-05-15T02:42:40.742Z,2.08
2019-05-15T02:43:19.108Z,2.20
2019-05-15T02:43:59.150Z,2.17
2019-05-15T02:44:40.359Z,1.90
2019-05-15T02:45:19.720Z,2.10
2019-05-15T02:46:00.123Z,2.00
2019-05-15T02:46:39.104Z,1.90
2019-05-15T02:47:19.666Z,2.08
2019-05-15T02:47:59.472Z,1.90
2019-05-15T02:48:35.882Z,1.55
2019-05-15T02:49:14.185Z,2.08
2019-05-15T02:49:52.295Z,2.25
2019-05-15T02:50:30.982Z,1.67
2019-05-15T02:51:09.695Z,2.00
2019-05-15T02:51:49.394Z,2.10
2019-05-15T02:52:29.469Z,2.15
2019-05-15T02:53:09.970Z,1.77
2019-05-15T02:53:50.145Z,1.90
2019-05-15T02:54:30.007Z,1.82
2019-05-15T02:55:09.448Z,2.08
2019-05-15T02:55:49.465Z,1.95
2019-05-15T02:56:29.364Z,1.87
2019-05-15T02:57:09.851Z,1.85
2019-05-15T02:57:49.497Z,2.10
2019-05-15T02:58:29.148Z,1.70
2019-05-15T02:59:09.013Z,1.98
2019-05-15T02:59:49.891Z,2.27
2019-05-15T03:00:37.754Z,2.30
2019-05-15T03:01:09.403Z,2.27
2019-05-15T03:01:49.399Z,2.20
2019-05-15T03:02:28.658Z,1.55
2019-05-15T03:03:09.458Z,2.20
2019-05-15T03:03:49.803Z,2.15
2019-05-15T03:04:29.070Z,2.05
2019-05-15T03:05:09.375Z,2.10
2019-05-15T03:05:49.790Z,1.70
2019-05-15T03:06:30.012Z,2.00
2019-05-15T03:07:09.632Z,2.08
2019-05-15T03:07:49.412Z,1.77
2019-05-15T03:08:29.755Z,1.98
2019-05-15T03:09:09.471Z,2.00
2019-05-15T03:09:49.613Z,2.12
2019-05-15T03:10:29.638Z,1.92
2019-05-15T03:11:09.798Z,2.37
2019-05-15T03:11:49.675Z,1.60
2019-05-15T03:12:29.064Z,1.90
2019-05-15T03:13:10.259Z,2.17
2019-05-15T03:13:50.275Z,2.08
2019-05-15T03:14:29.263Z,1.55
2019-05-15T03:15:09.984Z,1.90
2019-05-15T03:15:49.115Z,2.00
2019-05-15T03:16:30.451Z,1.90
2019-05-15T03:17:09.507Z,2.00
2019-05-15T03:17:49.414Z,1.77
2019-05-15T03:18:28.864Z,1.60
2019-05-15T03:19:09.946Z,2.02
2019-05-15T03:19:49.498Z,2.30
2019-05-15T03:20:29.747Z,1.52
2019-05-15T03:21:09.494Z,1.92
2019-05-15T03:21:49.667Z,2.10
2019-05-15T03:22:29.338Z,1.82
2019-05-15T03:23:09.635Z,1.72
2019-05-15T03:23:50.733Z,2.22
2019-05-15T03:24:29.085Z,1.70
2019-05-15T03:25:10.545Z,1.85
2019-05-15T03:25:49.017Z,1.67
2019-05-15T03:26:29.849Z,2.00
2019-05-15T03:27:09.165Z,2.00
2019-05-15T03:27:49.889Z,2.08
2019-05-15T03:28:29.191Z,2.15
2019-05-15T03:29:09.499Z,2.30
2019-05-15T03:29:49.134Z,1.80
2019-05-15T03:30:31.789Z,1.45
2019-05-15T03:31:25.757Z,1.87
2019-05-15T03:32:00.708Z,2.00
2019-05-15T03:32:35.943Z,1.90
2019-05-15T03:33:11.571Z,2.17
2019-05-15T03:33:47.093Z,1.90
2019-05-15T03:34:30.690Z,1.80
2019-05-15T03:35:06.065Z,2.02
2019-05-15T03:35:45.120Z,1.70
2019-05-15T03:36:24.609Z,1.92
2019-05-15T03:37:03.889Z,1.82
2019-05-15T03:37:42.383Z,1.50
2019-05-15T03:38:23.301Z,1.77
2019-05-15T03:39:09.698Z,2.10
2019-05-15T03:39:51.619Z,2.00
2019-05-15T03:40:29.946Z,2.20
2019-05-15T03:41:10.240Z,1.62
2019-05-15T03:41:49.715Z,1.80
2019-05-15T03:42:29.262Z,1.72
2019-05-15T03:43:08.877Z,1.62
2019-05-15T03:43:49.360Z,1.98
2019-05-15T03:44:28.586Z,1.60
2019-05-15T03:45:10.139Z,1.80
2019-05-15T03:45:49.378Z,1.70
2019-05-15T03:46:29.142Z,1.52
2019-05-15T03:47:09.254Z,1.90
2019-05-15T03:47:49.184Z,1.75
2019-05-15T03:48:28.782Z,1.50
2019-05-15T03:49:08.640Z,1.52
2019-05-15T03:49:49.176Z,1.60
2019-05-15T03:50:28.719Z,1.60
2019-05-15T03:51:05.432Z,1.27
2019-05-15T03:51:45.879Z,1.70
2019-05-15T03:52:23.631Z,1.60
2019-05-15T03:53:01.488Z,1.40
2019-05-15T03:53:40.301Z,1.90
2019-05-15T03:54:19.070Z,1.80
2019-05-15T03:54:58.854Z,1.42
2019-05-15T03:55:36.419Z,1.90
2019-05-15T03:56:22.312Z,1.70
2019-05-15T03:57:00.622Z,1.20
2019-05-15T03:57:39.960Z,1.90
2019-05-15T03:58:21.471Z,1.52
2019-05-15T03:58:59.720Z,1.30
2019-05-15T03:59:39.883Z,1.70
2019-05-15T04:00:19.512Z,1.72
2019-05-15T04:01:00.166Z,1.57
2019-05-15T04:01:43.294Z,1.70
2019-05-15T04:02:19.409Z,1.30
2019-05-15T04:02:59.051Z,1.20
2019-05-15T04:03:38.928Z,1.60
2019-05-15T04:04:18.757Z,1.40
2019-05-15T04:04:58.092Z,1.27
2019-05-15T04:05:33.976Z,1.60
2019-05-15T04:06:13.272Z,1.47
2019-05-15T04:06:51.272Z,1.40
2019-05-15T04:07:29.318Z,1.50
2019-05-15T04:08:10.362Z,1.33
2019-05-15T04:08:49.364Z,1.67
2019-05-15T04:09:29.179Z,1.40
2019-05-15T04:10:05.733Z,1.60
2019-05-15T04:10:48.937Z,1.50
2019-05-15T04:11:34.958Z,1.50
2019-05-15T04:12:13.036Z,1.70
2019-05-15T04:12:50.938Z,1.50
2019-05-15T04:13:30.074Z,1.70
2019-05-15T04:14:10.222Z,1.70
2019-05-15T04:14:50.001Z,1.30
2019-05-15T04:15:29.856Z,1.60
2019-05-15T04:16:05.964Z,1.70
2019-05-15T04:16:44.466Z,1.30
2019-05-15T04:17:22.448Z,1.70
2019-05-15T04:18:00.579Z,1.53
2019-05-15T04:18:41.211Z,1.37
2019-05-15T04:19:20.249Z,1.30
2019-05-15T04:19:58.910Z,1.57
2019-05-15T04:20:39.956Z,1.53
2019-05-15T04:21:20.045Z,1.60
2019-05-15T04:21:59.871Z,1.70
2019-05-15T04:22:36.000Z,1.20
2019-05-15T04:23:19.103Z,1.23
2019-05-15T04:23:58.779Z,1.37
2019-05-15T04:24:39.480Z,1.40
2019-05-15T04:25:19.164Z,1.50
2019-05-15T04:26:01.234Z,1.60
2019-05-15T04:26:41.203Z,1.80
2019-05-15T04:27:21.313Z,1.43
2019-05-15T04:28:01.777Z,1.50
2019-05-15T04:28:43.440Z,1.37
2019-05-15T04:29:21.227Z,1.47
2019-05-15T04:29:59.379Z,1.60
2019-05-15T04:30:39.307Z,1.33
2019-05-15T04:31:19.422Z,1.53
2019-05-15T04:32:02.478Z,1.40
2019-05-15T04:32:35.633Z,1.50
2019-05-15T04:33:13.650Z,1.50
2019-05-15T04:33:51.352Z,1.50
2019-05-15T04:34:29.495Z,1.27
2019-05-15T04:35:09.221Z,1.47
2019-05-15T04:35:49.723Z,1.60
2019-05-15T04:36:29.687Z,1.60
2019-05-15T04:37:09.371Z,1.50
2019-05-15T04:37:49.504Z,1.30
2019-05-15T04:38:29.298Z,1.40
2019-05-15T04:39:09.854Z,1.77
2019-05-15T04:39:49.101Z,1.60
2019-05-15T04:40:25.805Z,1.87
2019-05-15T04:41:04.086Z,1.47
2019-05-15T04:41:41.799Z,1.30
2019-05-15T04:42:20.414Z,1.60
2019-05-15T04:42:59.207Z,1.43
2019-05-15T04:43:43.737Z,1.80
2019-05-15T04:44:19.336Z,1.30
2019-05-15T04:44:56.435Z,1.60
2019-05-15T04:45:35.404Z,1.50
2019-05-15T04:46:13.308Z,1.33
2019-05-15T04:46:50.494Z,1.50
2019-05-15T04:47:30.403Z,1.47
2019-05-15T04:48:13.772Z,1.53
2019-05-15T04:48:50.910Z,1.43
2019-05-15T04:49:29.270Z,1.30
2019-05-15T04:50:08.920Z,1.20
2019-05-15T04:50:50.444Z,1.43
2019-05-15T04:51:30.632Z,1.47
2019-05-15T04:52:11.403Z,1.60
2019-05-15T04:52:50.151Z,1.20
2019-05-15T04:53:29.708Z,1.33
2019-05-15T04:54:09.495Z,1.60
2019-05-15T04:54:49.633Z,1.50
2019-05-15T04:55:28.977Z,1.77
2019-05-15T04:56:09.383Z,1.37
2019-05-15T04:56:48.729Z,1.63
2019-05-15T04:57:32.596Z,1.63
2019-05-15T04:58:05.504Z,1.47
2019-05-15T04:58:44.647Z,1.57
2019-05-15T04:59:22.447Z,1.37
2019-05-15T05:00:00.652Z,1.43
2019-05-15T05:00:49.925Z,1.83
2019-05-15T05:01:31.266Z,1.40
2019-05-15T05:02:19.356Z,1.67
2019-05-15T05:02:53.742Z,1.50
2019-05-15T05:03:34.390Z,1.40
2019-05-15T05:04:11.964Z,1.40
2019-05-15T05:04:49.694Z,1.57
2019-05-15T05:05:29.382Z,1.47
2019-05-15T05:06:09.447Z,1.60
2019-05-15T05:06:49.271Z,1.40
2019-05-15T05:07:26.157Z,1.47
2019-05-15T05:08:03.748Z,1.20
2019-05-15T05:08:41.688Z,1.27
2019-05-15T05:09:22.123Z,1.30
2019-05-15T05:10:00.343Z,1.50
2019-05-15T05:10:39.580Z,1.57
2019-05-15T05:11:19.353Z,1.77
2019-05-15T05:12:00.519Z,1.70
2019-05-15T05:12:42.028Z,1.50
2019-05-15T05:13:19.966Z,1.57
2019-05-15T05:13:59.123Z,1.50
2019-05-15T05:14:38.911Z,1.50
2019-05-15T05:15:15.252Z,1.77
2019-05-15T05:15:53.057Z,1.30
2019-05-15T05:16:38.976Z,1.87
2019-05-15T05:17:15.178Z,1.50
2019-05-15T05:17:58.630Z,1.50
2019-05-15T05:18:41.448Z,1.50
2019-05-15T05:19:19.368Z,1.40
2019-05-15T05:19:55.600Z,2.00
2019-05-15T05:20:38.111Z,1.70
2019-05-15T05:21:15.145Z,1.83
2019-05-15T05:21:53.133Z,1.50
2019-05-15T05:22:31.187Z,1.23
2019-05-15T05:23:09.373Z,1.50
2019-05-15T05:23:48.397Z,1.30
2019-05-15T05:24:29.074Z,1.27
2019-05-15T05:25:08.047Z,1.30
2019-05-15T05:25:48.833Z,1.30
2019-05-15T05:26:25.701Z,1.27
2019-05-15T05:27:03.373Z,1.30
2019-05-15T05:27:41.687Z,1.50
2019-05-15T05:28:20.065Z,1.20
2019-05-15T05:29:01.463Z,1.37
2019-05-15T05:29:38.594Z,1.27
2019-05-15T05:30:19.014Z,1.40
2019-05-15T05:30:58.789Z,1.53
2019-05-15T05:31:38.865Z,1.17
2019-05-15T05:32:28.826Z,1.33
2019-05-15T05:32:54.217Z,1.67
2019-05-15T05:33:32.238Z,1.30
2019-05-15T05:34:09.455Z,1.07
2019-05-15T05:34:48.299Z,1.30
2019-05-15T05:35:27.852Z,1.57
2019-05-15T05:36:07.710Z,1.30
2019-05-15T05:36:45.027Z,1.47
2019-05-15T05:37:24.287Z,1.30
2019-05-15T05:38:02.656Z,1.00
2019-05-15T05:38:40.232Z,1.20
2019-05-15T05:39:19.882Z,1.30
2019-05-15T05:39:57.745Z,1.40
2019-05-15T05:40:35.525Z,1.30
2019-05-15T05:41:13.207Z,1.70
2019-05-15T05:41:50.201Z,2.33
2019-05-15T05:42:30.417Z,1.73
2019-05-15T05:43:09.470Z,1.40
2019-05-15T05:43:49.931Z,1.80
2019-05-15T05:44:29.296Z,2.43
2019-05-15T05:45:09.422Z,2.80
2019-05-15T05:45:49.119Z,1.73
2019-05-15T05:46:28.144Z,1.60
2019-05-15T05:47:05.672Z,2.27
2019-05-15T05:47:45.707Z,1.60
2019-05-15T05:48:23.644Z,1.20
2019-05-15T05:49:01.896Z,1.33
2019-05-15T05:49:41.569Z,1.50
2019-05-15T05:50:38.547Z,2.03
2019-05-15T05:51:19.111Z,1.93
2019-05-15T05:51:56.017Z,2.40
2019-05-15T05:52:53.216Z,1.50
2019-05-15T05:53:33.481Z,1.77
2019-05-15T05:54:11.249Z,1.43
2019-05-15T05:54:49.451Z,1.53
2019-05-15T05:55:29.891Z,1.50
2019-05-15T05:56:08.923Z,1.50
2019-05-15T05:56:48.295Z,1.50
2019-05-15T05:57:27.981Z,1.60
2019-05-15T05:58:09.609Z,1.30
2019-05-15T05:58:49.161Z,1.50
2019-05-15T05:59:28.628Z,1.10
2019-05-15T06:00:09.324Z,1.27
2019-05-15T06:00:48.908Z,1.30
2019-05-15T06:01:28.234Z,1.80
2019-05-15T06:02:08.240Z,1.27
2019-05-15T06:02:51.332Z,1.33
2019-05-15T06:03:28.109Z,1.20
2019-05-15T06:04:04.801Z,1.37
2019-05-15T06:04:42.775Z,1.03
2019-05-15T06:05:20.664Z,1.10
2019-05-15T06:05:59.238Z,1.17
2019-05-15T06:06:38.422Z,1.20
2019-05-15T06:07:18.321Z,1.27
2019-05-15T06:07:58.207Z,1.40
2019-05-15T06:08:42.235Z,1.10
2019-05-15T06:09:20.082Z,0.90
2019-05-15T06:09:58.205Z,1.40
2019-05-15T06:10:38.558Z,0.97
2019-05-15T06:11:15.510Z,0.80
2019-05-15T06:11:53.016Z,1.10
2019-05-15T06:12:30.941Z,1.00
2019-05-15T06:13:08.951Z,1.20
2019-05-15T06:13:49.437Z,1.03
2019-05-15T06:14:28.833Z,1.00
2019-05-15T06:15:08.992Z,1.17
2019-05-15T06:15:49.100Z,1.10
2019-05-15T06:16:29.317Z,1.20
2019-05-15T06:17:08.382Z,1.03
2019-05-15T06:17:48.113Z,1.20
2019-05-15T06:18:28.149Z,0.90
2019-05-15T06:19:08.135Z,1.10
2019-05-15T06:19:48.806Z,1.10
2019-05-15T06:20:28.256Z,1.10
2019-05-15T06:21:08.823Z,1.10
2019-05-15T06:21:54.564Z,1.03
2019-05-15T06:22:27.574Z,1.77
2019-05-15T06:23:08.454Z,1.13
2019-05-15T06:23:54.857Z,1.00
2019-05-15T06:24:30.568Z,0.90
2019-05-15T06:25:11.401Z,1.20
2019-05-15T06:25:49.670Z,1.10
2019-05-15T06:26:28.296Z,0.93
2019-05-15T06:27:08.186Z,0.90
2019-05-15T06:27:54.767Z,0.90
2019-05-15T06:28:35.506Z,1.00
2019-05-15T06:29:13.755Z,1.20
2019-05-15T06:29:51.439Z,1.20
2019-05-15T06:30:32.830Z,1.00
2019-05-15T06:31:10.986Z,1.17
2019-05-15T06:31:49.041Z,1.13
2019-05-15T06:32:29.969Z,0.90
2019-05-15T06:33:12.828Z,1.10
2019-05-15T06:33:48.860Z,1.20
2019-05-15T06:34:29.153Z,1.10
2019-05-15T06:35:08.731Z,1.10
2019-05-15T06:35:48.944Z,1.05
2019-05-15T06:36:28.995Z,0.90
2019-05-15T06:37:08.322Z,0.87
2019-05-15T06:37:48.302Z,0.93
2019-05-15T06:38:25.083Z,1.10
2019-05-15T06:39:02.535Z,0.93
2019-05-15T06:39:40.551Z,1.20
2019-05-15T06:40:18.605Z,1.03
2019-05-15T06:40:58.319Z,1.10
2019-05-15T06:41:39.012Z,1.20
2019-05-15T06:42:18.767Z,1.30
2019-05-15T06:42:59.293Z,1.10
2019-05-15T06:43:39.875Z,1.00
2019-05-15T06:44:22.973Z,1.03
2019-05-15T06:45:00.772Z,1.00
2019-05-15T06:45:41.699Z,1.00
2019-05-15T06:46:21.721Z,1.03
2019-05-15T06:46:59.458Z,1.00
2019-05-15T06:47:39.521Z,1.20
2019-05-15T06:48:22.633Z,0.93
2019-05-15T06:49:00.999Z,0.90
2019-05-15T06:49:39.160Z,1.00
2019-05-15T06:50:38.859Z,1.00
2019-05-15T06:51:18.143Z,1.00
2019-05-15T06:51:58.165Z,1.10
2019-05-15T06:52:39.105Z,0.98
2019-05-15T06:53:19.190Z,0.90
2019-05-15T06:53:58.256Z,1.30
2019-05-15T06:54:37.755Z,1.07
2019-05-15T06:55:14.829Z,0.90
2019-05-15T06:55:53.959Z,1.20
2019-05-15T06:56:31.620Z,0.90
2019-05-15T06:57:09.345Z,0.87
2019-05-15T06:57:48.659Z,0.90
2019-05-15T06:58:26.022Z,1.00
2019-05-15T06:59:04.128Z,1.20
2019-05-15T06:59:41.914Z,0.90
2019-05-15T07:00:21.159Z,1.37
2019-05-15T07:01:00.447Z,1.27
2019-05-15T07:01:38.660Z,1.00
2019-05-15T07:02:18.683Z,0.97
2019-05-15T07:02:59.014Z,1.00
2019-05-15T07:03:39.283Z,0.90
2019-05-15T07:04:18.210Z,1.30
2019-05-15T07:04:55.577Z,1.00
2019-05-15T07:05:33.454Z,0.90
2019-05-15T07:06:14.056Z,0.90
2019-05-15T07:06:51.720Z,1.10
2019-05-15T07:07:32.037Z,1.67
2019-05-15T07:08:09.720Z,0.93
2019-05-15T07:08:49.542Z,1.00
2019-05-15T07:09:28.515Z,0.80
2019-05-15T07:10:08.973Z,0.80
2019-05-15T07:10:48.729Z,0.90
2019-05-15T07:11:28.175Z,0.90
2019-05-15T07:12:05.448Z,1.00
2019-05-15T07:12:48.437Z,0.82
2019-05-15T07:13:25.294Z,0.90
2019-05-15T07:14:03.638Z,0.70
2019-05-15T07:14:42.707Z,1.10
2019-05-15T07:15:23.593Z,0.90
2019-05-15T07:16:01.398Z,0.83
2019-05-15T07:16:42.437Z,0.93
2019-05-15T07:17:21.329Z,0.90
2019-05-15T07:17:59.626Z,0.90
2019-05-15T07:18:39.164Z,1.10
2019-05-15T07:19:18.977Z,0.90
2019-05-15T07:20:00.458Z,1.00
2019-05-15T07:20:41.687Z,0.93
2019-05-15T07:21:20.701Z,0.90
2019-05-15T07:22:05.944Z,1.10
2019-05-15T07:22:43.506Z,0.80
2019-05-15T07:23:21.600Z,0.90
2019-05-15T07:24:00.104Z,0.80
2019-05-15T07:24:38.387Z,1.00
2019-05-15T07:25:18.899Z,1.00
2019-05-15T07:26:02.177Z,0.85
2019-05-15T07:26:39.459Z,0.97
2019-05-15T07:27:18.489Z,0.80
2019-05-15T07:28:00.700Z,1.13
2019-05-15T07:28:39.135Z,0.80
2019-05-15T07:29:19.080Z,0.90
2019-05-15T07:29:58.374Z,0.90
2019-05-15T07:30:41.197Z,0.93
2019-05-15T07:31:18.330Z,1.00
2019-05-15T07:31:55.991Z,1.10
2019-05-15T07:32:34.032Z,0.80
2019-05-15T07:33:11.736Z,0.90
2019-05-15T07:33:49.806Z,0.80
2019-05-15T07:34:28.384Z,1.30
2019-05-15T07:35:08.558Z,1.00
2019-05-15T07:35:48.703Z,1.17
2019-05-15T07:36:28.741Z,0.98
2019-05-15T07:37:09.335Z,0.80
2019-05-15T07:37:47.893Z,1.00
2019-05-15T07:38:28.246Z,0.90
2019-05-15T07:39:08.391Z,0.80
2019-05-15T07:39:48.620Z,0.90
2019-05-15T07:40:33.723Z,0.87
2019-05-15T07:41:11.497Z,1.00
2019-05-15T07:41:49.574Z,0.90
2019-05-15T07:42:29.150Z,1.00
2019-05-15T07:43:09.399Z,0.87
2019-05-15T07:43:45.902Z,1.20
2019-05-15T07:44:24.070Z,0.90
2019-05-15T07:45:02.596Z,1.10
2019-05-15T07:45:43.728Z,1.57
2019-05-15T07:46:20.278Z,1.27
2019-05-15T07:47:00.846Z,0.88
2019-05-15T07:47:39.128Z,1.13
2019-05-15T07:48:18.775Z,0.90
2019-05-15T07:48:59.380Z,0.77
2019-05-15T07:49:38.794Z,0.83
2019-05-15T07:50:19.664Z,1.00
2019-05-15T07:50:59.395Z,0.80
2019-05-15T07:51:38.265Z,1.30
2019-05-15T07:52:19.174Z,0.90
2019-05-15T07:52:58.966Z,0.90
2019-05-15T07:53:38.470Z,0.90
2019-05-15T07:54:18.220Z,1.00
2019-05-15T07:54:58.193Z,0.90
2019-05-15T07:55:35.750Z,1.10
2019-05-15T07:56:13.503Z,0.90
2019-05-15T07:56:50.906Z,1.00
2019-05-15T07:57:29.912Z,0.80
2019-05-15T07:58:10.984Z,1.02
2019-05-15T07:58:52.413Z,0.90
2019-05-15T07:59:28.312Z,0.77
2019-05-15T08:00:25.280Z,1.00
2019-05-15T08:01:05.354Z,1.20
2019-05-15T08:01:43.158Z,1.30
2019-05-15T08:02:21.146Z,1.10
2019-05-15T08:02:59.934Z,0.90
2019-05-15T08:03:47.139Z,1.00
2019-05-15T08:04:26.194Z,0.80
2019-05-15T08:04:59.434Z,0.90
2019-05-15T08:05:39.482Z,0.90
2019-05-15T08:06:18.009Z,0.87
2019-05-15T08:06:54.942Z,1.00
2019-05-15T08:07:32.992Z,1.05
2019-05-15T08:08:10.851Z,1.00
2019-05-15T08:08:48.855Z,0.90
2019-05-15T08:09:28.262Z,0.80
2019-05-15T08:10:08.722Z,0.80
2019-05-15T08:10:49.055Z,0.90
2019-05-15T08:11:28.570Z,1.00
2019-05-15T08:12:08.278Z,0.80
2019-05-15T08:12:45.794Z,0.93
2019-05-15T08:13:23.774Z,0.70
2019-05-15T08:14:03.585Z,1.00
2019-05-15T08:14:41.173Z,0.80
2019-05-15T08:15:20.959Z,0.77
2019-05-15T08:15:58.754Z,0.90
2019-05-15T08:16:35.804Z,0.70
2019-05-15T08:17:14.088Z,0.90
2019-05-15T08:18:03.176Z,1.00
2019-05-15T08:18:31.572Z,1.00
2019-05-15T08:19:09.387Z,0.90
2019-05-15T08:19:48.691Z,1.00
2019-05-15T08:20:28.936Z,0.93
2019-05-15T08:21:08.813Z,0.85
2019-05-15T08:21:45.929Z,1.50
2019-05-15T08:22:23.742Z,0.93
2019-05-15T08:23:01.633Z,0.70
2019-05-15T08:23:39.307Z,0.70
2019-05-15T08:24:18.673Z,1.00
2019-05-15T08:24:58.960Z,0.90
2019-05-15T08:25:35.752Z,0.70
2019-05-15T08:26:13.782Z,0.70
2019-05-15T08:26:51.526Z,1.10
2019-05-15T08:27:29.834Z,0.90
2019-05-15T08:28:08.850Z,1.05
2019-05-15T08:28:48.724Z,0.80
2019-05-15T08:29:26.059Z,0.80
2019-05-15T08:30:04.310Z,0.90
2019-05-15T08:30:41.760Z,0.80
2019-05-15T08:31:19.639Z,0.80
2019-05-15T08:31:59.004Z,1.00
2019-05-15T08:32:38.918Z,0.88
2019-05-15T08:33:17.788Z,0.80
2019-05-15T08:34:12.016Z,0.75
2019-05-15T08:34:35.702Z,1.00
2019-05-15T08:35:15.129Z,0.90
2019-05-15T08:35:53.118Z,0.87
2019-05-15T08:36:33.736Z,0.70
2019-05-15T08:37:11.352Z,0.60
2019-05-15T08:37:49.737Z,0.70
2019-05-15T08:38:28.823Z,1.07
2019-05-15T08:39:08.623Z,0.70
2019-05-15T08:39:48.468Z,0.80
2019-05-15T08:40:25.702Z,0.87
2019-05-15T08:41:03.994Z,0.93
2019-05-15T08:41:42.514Z,1.20
2019-05-15T08:42:20.594Z,0.87
2019-05-15T08:43:02.168Z,0.72
2019-05-15T08:43:41.679Z,0.80
2019-05-15T08:44:20.724Z,1.13
2019-05-15T08:44:59.005Z,0.67
2019-05-15T08:45:39.096Z,0.90